Time;durP1;ratioP1;P1;durP2;ratioP2;P2;SDS_P1;SDS_P2;PMS_P1;PMS_P2;Temp;Humidity;BMP_temperature;BMP_pressure;BME280_temperature;BME280_humidity;BME280_pressure;Samples;Min_cycle;Max_cycle;Signal;HPM_P1;HPM_P2
2022/05/13 00:00:03;;;;;;;8.75;3.28;;;;;;;;;;4981909;28;20069;-63
2022/05/13 00:02:29;;;;;;;4.75;3.00;;;;;;;;;;4977250;28;20089;-63
2022/05/13 00:04:55;;;;;;;3.35;2.88;;;;;;;;;;4973270;28;20038;-63
2022/05/13 00:07:21;;;;;;;7.82;3.38;;;;;;;;;;4978522;28;20669;-64
2022/05/13 00:09:56;;;;;;;6.45;4.60;;;;;;;;;;4986738;28;20030;-64
2022/05/13 00:12:22;;;;;;;6.88;3.40;;;;;;;;;;4981352;28;20045;-62
2022/05/13 00:14:48;;;;;;;10.10;4.47;;;17.40;99.90;;;;;;4985310;28;20540;-62
2022/05/13 00:17:16;;;;;;;5.10;3.47;;;;;;;;;;4986787;28;20109;-63
2022/05/13 00:19:42;;;;;;;6.45;3.95;;;;;;;;;;4982450;28;20046;-64
2022/05/13 00:22:08;;;;;;;7.22;3.95;;;;;;;;;;4979681;28;20093;-62
2022/05/13 00:24:34;;;;;;;6.25;3.35;;;;;;;;;;4988118;28;20496;-63
2022/05/13 00:27:00;;;;;;;10.38;3.47;;;;;;;;;;4981879;28;20026;-63
2022/05/13 00:29:27;;;;;;;7.82;4.35;;;;;;;;;;4978977;28;20039;-64
2022/05/13 00:31:53;;;;;;;9.27;5.13;;;;;;;;;;4980181;28;20026;-63
2022/05/13 00:34:19;;;;;;;7.18;4.35;;;;;;;;;;4984119;28;20285;-63
2022/05/13 00:36:47;;;;;;;10.82;5.70;;;;;;;;;;4988816;28;20026;-65
2022/05/13 00:39:13;;;;;;;10.32;3.83;;;;;;;;;;4988403;28;20117;-64
2022/05/13 00:41:39;;;;;;;8.07;3.70;;;;;;;;;;4985019;28;20044;-64
2022/05/13 00:44:05;;;;;;;7.53;3.78;;;;;;;;;;4981127;28;20089;-64
2022/05/13 00:46:31;;;;;;;10.80;4.57;;;17.20;98.30;;;;;;4985455;28;20038;-63
2022/05/13 00:48:59;;;;;;;6.28;3.58;;;;;;;;;;4984720;28;20032;-63
2022/05/13 00:51:30;;;;;;;7.78;4.03;;;;;;;;;;4982891;28;20038;-65
2022/05/13 00:53:57;;;;;;;9.98;3.85;;;;;;;;;;4986467;28;20484;-63
2022/05/13 00:56:23;;;;;;;12.20;4.45;;;;;;;;;;4981416;28;20507;-64
2022/05/13 00:58:52;;;;;;;8.75;4.07;;;;;;;;;;4982727;28;20038;-64
2022/05/13 01:01:17;;;;;;;7.88;4.05;;;17.00;99.90;;;;;;4975741;28;20400;-63
2022/05/13 01:03:44;;;;;;;7.63;4.20;;;;;;;;;;4983036;28;20113;-64
2022/05/13 01:06:13;;;;;;;8.02;4.28;;;;;;;;;;4983759;28;20040;-64
2022/05/13 01:08:39;;;;;;;7.03;4.57;;;;;;;;;;4983242;28;20466;-63
2022/05/13 01:11:08;;;;;;;6.57;2.95;;;;;;;;;;4978289;28;20034;-63
2022/05/13 01:13:34;;;;;;;9.00;2.80;;;;;;;;;;4998150;28;20097;-64
2022/05/13 01:16:00;;;;;;;5.05;4.18;;;;;;;;;;4986220;28;20030;-63
2022/05/13 01:18:26;;;;;;;4.47;3.20;;;;;;;;;;4986609;28;20667;-63
2022/05/13 01:20:53;;;;;;;11.95;4.68;;;;;;;;;;4976116;28;20046;-63
2022/05/13 01:23:20;;;;;;;7.72;3.80;;;;;;;;;;4991187;28;20486;-64
2022/05/13 01:25:50;;;;;;;8.30;4.45;;;;;;;;;;4982767;28;20030;-65
2022/05/13 01:28:18;;;;;;;8.68;4.32;;;;;;;;;;4980959;28;20034;-63
2022/05/13 01:30:44;;;;;;;;;;;;;;;;;;4982120;28;20852;-65
2022/05/13 01:33:11;;;;;;;8.77;4.72;;;16.50;99.80;;;;;;4987996;28;20008;-64
2022/05/13 01:35:42;;;;;;;9.38;5.45;;;16.50;99.90;;;;;;4983971;28;20538;-64
2022/05/13 01:38:08;;;;;;;12.05;5.78;;;;;;;;;;4978858;28;20049;-64
2022/05/13 01:40:34;;;;;;;9.27;4.43;;;;;;;;;;4974138;28;20042;-65
2022/05/13 01:43:00;;;;;;;10.68;5.13;;;;;;;;;;4994080;28;20049;-63
2022/05/13 01:45:26;;;;;;;6.90;4.15;;;;;;;;;;4988339;28;20458;-64
2022/05/13 01:47:51;;;;;;;8.45;4.07;;;16.50;99.90;;;;;;4982639;28;20380;-62
2022/05/13 01:50:17;;;;;;;9.70;4.55;;;16.60;99.90;;;;;;4979419;28;20038;-64
2022/05/13 01:52:43;;;;;;;6.70;4.25;;;;;;;;;;4983888;28;20033;-63
2022/05/13 01:55:09;;;;;;;6.72;4.15;;;;;;;;;;4980865;28;20509;-63
2022/05/13 01:57:35;;;;;;;7.20;4.95;;;16.40;99.90;;;;;;4988227;28;20069;-64
2022/05/13 02:00:02;;;;;;;8.63;4.65;;;;;;;;;;4978262;28;20042;-63
2022/05/13 02:02:28;;;;;;;7.80;4.07;;;16.80;99.90;;;;;;4982315;28;20125;-62
2022/05/13 02:04:54;;;;;;;7.50;4.22;;;;;;;;;;4983996;28;20121;-64
2022/05/13 02:07:20;;;;;;;6.88;3.80;;;;;;;;;;4986306;28;20031;-63
2022/05/13 02:09:46;;;;;;;8.68;4.28;;;;;;;;;;4983378;28;20535;-64
2022/05/13 02:12:12;;;;;;;7.50;4.47;;;;;;;;;;4981018;28;20026;-64
2022/05/13 02:14:37;;;;;;;8.90;3.70;;;16.20;99.90;;;;;;4988083;28;20049;-63
2022/05/13 02:17:03;;;;;;;9.98;4.70;;;;;;;;;;4985405;28;20034;-64
2022/05/13 02:19:29;;;;;;;9.20;5.43;;;;;;;;;;4983431;28;20078;-64
2022/05/13 02:21:55;;;;;;;7.00;4.60;;;;;;;;;;4976551;28;20469;-64
2022/05/13 02:24:21;;;;;;;10.02;4.70;;;;;;;;;;4974871;28;20041;-64
2022/05/13 02:26:47;;;;;;;16.83;5.22;;;;;;;;;;4974933;28;20484;-64
2022/05/13 02:29:13;;;;;;;11.82;5.15;;;;;;;;;;4978549;28;20050;-64
2022/05/13 02:31:39;;;;;;;6.72;4.07;;;;;;;;;;4975940;28;20034;-63
2022/05/13 02:34:05;;;;;;;8.32;4.40;;;;;;;;;;4991564;28;20648;-64
2022/05/13 02:36:32;;;;;;;8.48;4.70;;;;;;;;;;4986598;28;20035;-64
2022/05/13 02:38:58;;;;;;;9.73;4.75;;;16.20;99.90;;;;;;4975283;28;20117;-63
2022/05/13 02:41:24;;;;;;;6.90;3.10;;;;;;;;;;4972403;28;20038;-64
2022/05/13 02:43:52;;;;;;;11.75;5.00;;;;;;;;;;4989076;28;20046;-63
2022/05/13 02:46:19;;;;;;;7.10;4.95;;;;;;;;;;4985392;28;20042;-64
2022/05/13 02:48:46;;;;;;;7.32;4.50;;;;;;;;;;4981996;28;20034;-63
2022/05/13 02:51:12;;;;;;;5.40;3.88;;;;;;;;;;4974310;28;20117;-64
2022/05/13 02:53:38;;;;;;;12.30;4.65;;;15.90;99.90;;;;;;4977384;28;20109;-64
2022/05/13 02:56:06;;;;;;;9.32;4.25;;;;;;;;;;4975832;28;20487;-65
2022/05/13 02:58:32;;;;;;;7.05;3.92;;;;;;;;;;4983895;28;20085;-63
2022/05/13 03:00:57;;;;;;;6.40;4.32;;;15.60;99.90;;;;;;4992719;28;20492;-63
2022/05/13 03:03:23;;;;;;;7.25;4.05;;;;;;;;;;4994971;28;20018;-63
2022/05/13 03:05:49;;;;;;;8.45;4.05;;;;;;;;;;4982803;28;20034;-64
2022/05/13 03:08:15;;;;;;;7.53;5.30;;;;;;;;;;4983060;28;20527;-64
2022/05/13 03:10:41;;;;;;;9.68;5.18;;;;;;;;;;4974198;28;20022;-64
2022/05/13 03:13:09;;;;;;;10.43;5.63;;;;;;;;;;4984463;28;20046;-63
2022/05/13 03:15:35;;;;;;;12.93;5.72;;;;;;;;;;4990009;28;20117;-65
2022/05/13 03:18:01;;;;;;;10.15;4.88;;;;;;;;;;4985769;28;20038;-65
2022/05/13 03:20:27;;;;;;;10.25;4.10;;;;;;;;;;4987432;28;20065;-64
2022/05/13 03:22:53;;;;;;;11.48;4.25;;;;;;;;;;4986917;28;20026;-64
2022/05/13 03:25:21;;;;;;;13.18;6.82;;;;;;;;;;4986721;28;20402;-64
2022/05/13 03:27:47;;;;;;;13.02;5.85;;;;;;;;;;4989194;28;20026;-63
2022/05/13 03:30:15;;;;;;;12.52;5.63;;;;;;;;;;4986880;28;20498;-63
2022/05/13 03:32:41;;;;;;;10.77;5.70;;;;;;;;;;4989110;28;20026;-63
2022/05/13 03:35:08;;;;;;;20.10;7.07;;;;;;;;;;4994633;28;20030;-63
2022/05/13 03:37:34;;;;;;;19.35;7.22;;;16.00;99.90;;;;;;4987697;28;20042;-63
2022/05/13 03:40:00;;;;;;;24.85;9.90;;;;;;;;;;4984900;28;20034;-63
2022/05/13 03:42:26;;;;;;;24.75;11.15;;;;;;;;;;4983628;28;20061;-63
2022/05/13 03:44:52;;;;;;;28.45;8.60;;;;;;;;;;4987907;28;20470;-64
2022/05/13 03:47:19;;;;;;;28.33;9.50;;;;;;;;;;4985446;28;20390;-65
2022/05/13 03:49:45;;;;;;;23.33;7.93;;;;;;;;;;4983367;28;20062;-64
2022/05/13 03:52:12;;;;;;;15.60;5.75;;;;;;;;;;4990836;28;20152;-64
2022/05/13 03:54:38;;;;;;;15.98;7.40;;;;;;;;;;4991732;28;20064;-64
2022/05/13 03:57:07;;;;;;;15.30;6.53;;;;;;;;;;4985862;28;20045;-64
2022/05/13 03:59:34;;;;;;;12.65;5.88;;;;;;;;;;4978392;28;20042;-64
2022/05/13 04:02:00;;;;;;;9.80;6.50;;;15.60;99.90;;;;;;4988601;28;20559;-64
2022/05/13 04:04:29;;;;;;;10.55;5.80;;;15.50;99.90;;;;;;4986946;28;20045;-63
2022/05/13 04:09:41;;;;;;;10.25;5.22;;;;;;;;;;4987521;28;20073;-64
2022/05/13 04:17:36;;;;;;;9.15;4.85;;;15.50;99.90;;;;;;4985524;28;20057;-63
2022/05/13 04:20:02;;;;;;;9.88;5.65;;;;;;;;;;4981448;28;20046;-64
2022/05/13 04:22:30;;;;;;;7.32;3.72;;;;;;;;;;4978860;28;20026;-63
2022/05/13 04:24:56;;;;;;;7.07;4.90;;;;;;;;;;4989461;28;20121;-63
2022/05/13 04:27:21;;;;;;;7.18;4.25;;;15.60;99.90;;;;;;4973217;28;20593;-63
2022/05/13 04:29:47;;;;;;;9.73;3.55;;;;;;;;;;4975936;28;20026;-64
2022/05/13 04:32:13;;;;;;;5.82;4.30;;;;;;;;;;4990005;28;20034;-64
2022/05/13 04:34:39;;;;;;;8.23;4.60;;;;;;;;;;4986892;28;20162;-64
2022/05/13 04:37:06;;;;;;;9.00;4.93;;;;;;;;;;4986293;28;20522;-64
2022/05/13 04:39:32;;;;;;;8.98;4.80;;;;;;;;;;4984922;28;20089;-64
2022/05/13 04:44:42;;;;;;;13.32;5.20;;;15.60;99.90;;;;;;4988095;28;20088;-63
2022/05/13 04:48:15;;;;;;;9.73;5.07;;;;;;;;;;4985521;28;20038;-64
2022/05/13 04:49:55;;;;;;;8.57;5.13;;;;;;;;;;4982136;28;20136;-64
2022/05/13 04:52:21;;;;;;;7.10;4.55;;;;;;;;;;4991777;28;20109;-63
2022/05/13 04:54:47;;;;;;;8.45;4.20;;;;;;;;;;4985404;28;20093;-65
2022/05/13 04:57:13;;;;;;;9.85;4.57;;;;;;;;;;4973124;28;20404;-63
2022/05/13 04:59:39;;;;;;;5.93;3.95;;;;;;;;;;4978454;28;20045;-65
2022/05/13 05:02:05;;;;;;;11.00;4.13;;;;;;;;;;4980136;28;20080;-65
2022/05/13 05:04:31;;;;;;;6.05;3.83;;;;;;;;;;4991698;28;20434;-63
2022/05/13 05:06:57;;;;;;;8.02;3.63;;;;;;;;;;4985505;28;20018;-63
2022/05/13 05:09:24;;;;;;;6.47;3.33;;;;;;;;;;4990647;28;20041;-62
2022/05/13 05:11:50;;;;;;;5.50;3.25;;;;;;;;;;4979753;28;20034;-63
2022/05/13 05:14:16;;;;;;;9.18;3.33;;;;;;;;;;4985906;28;20042;-65
2022/05/13 05:16:41;;;;;;;5.38;3.15;;;15.90;99.90;;;;;;4986391;28;20498;-64
2022/05/13 05:19:07;;;;;;;4.30;3.25;;;;;;;;;;4987595;28;20073;-63
2022/05/13 05:21:33;;;;;;;4.85;3.03;;;;;;;;;;4980759;28;20027;-64
2022/05/13 05:23:59;;;;;;;5.82;3.50;;;;;;;;;;4987115;28;20030;-64
2022/05/13 05:26:25;;;;;;;3.80;3.00;;;;;;;;;;4985962;28;20030;-64
2022/05/13 05:28:53;;;;;;;4.72;3.08;;;;;;;;;;4982415;28;20118;-63
2022/05/13 05:31:19;;;;;;;3.53;3.05;;;16.80;99.90;;;;;;4977969;28;20058;-64
2022/05/13 05:33:45;;;;;;;5.93;3.88;;;;;;;;;;4986254;28;20053;-64
2022/05/13 05:36:11;;;;;;;6.05;4.07;;;;;;;;;;4983309;28;20041;-64
2022/05/13 05:38:37;;;;;;;6.78;4.10;;;;;;;;;;4979984;28;20019;-64
2022/05/13 05:41:03;;;;;;;4.78;3.55;;;;;;;;;;4978840;28;20144;-64
2022/05/13 05:43:30;;;;;;;6.72;4.45;;;;;;;;;;4980928;28;20117;-63
2022/05/13 05:45:56;;;;;;;6.40;3.92;;;;;;;;;;4982794;28;20057;-63
2022/05/13 05:48:24;;;;;;;7.10;4.60;;;17.50;99.90;;;;;;4986947;28;20084;-63
2022/05/13 05:50:55;;;;;;;10.27;3.63;;;17.50;95.60;;;;;;4984420;28;20116;-63
2022/05/13 05:58:52;;;;;;;4.15;3.10;;;;;;;;;;4982769;28;20098;-63
2022/05/13 06:01:18;;;;;;;5.50;3.15;;;;;;;;;;4978778;28;20034;-64
2022/05/13 06:03:44;;;;;;;6.60;3.38;;;;;;;;;;4986893;28;20842;-63
2022/05/13 06:06:12;;;;;;;3.95;2.83;;;;;;;;;;4974463;28;20046;-62
2022/05/13 06:08:39;;;;;;;7.57;3.72;;;17.20;96.10;;;;;;4978683;28;20066;-63
2022/05/13 06:11:05;;;;;;;4.60;2.92;;;;;;;;;;4980805;28;20427;-64
2022/05/13 06:13:31;;;;;;;4.38;3.35;;;;;;;;;;4979563;28;20039;-63
2022/05/13 06:15:57;;;;;;;5.20;3.85;;;;;;;;;;4986405;28;20116;-64
2022/05/13 06:18:23;;;;;;;5.82;3.28;;;;;;;;;;4974910;28;20023;-65
2022/05/13 06:20:49;;;;;;;5.78;3.47;;;;;;;;;;4976118;28;20046;-63
2022/05/13 06:23:14;;;;;;;4.10;2.28;;;18.30;99.90;;;;;;4977128;28;20105;-62
2022/05/13 06:25:40;;;;;;;12.30;4.32;;;18.50;99.90;;;;;;4991006;28;20042;-62
2022/05/13 06:28:06;;;;;;;11.30;4.72;;;;;;;;;;4986132;28;20116;-63
2022/05/13 06:30:33;;;;;;;3.97;3.42;;;;;;;;;;4985004;28;20049;-65
2022/05/13 06:32:59;;;;;;;5.70;3.13;;;;;;;;;;4983040;28;20093;-63
2022/05/13 06:35:27;;;;;;;4.50;2.83;;;19.60;90.20;;;;;;4989667;28;20703;-64
2022/05/13 06:37:53;;;;;;;4.47;3.67;;;;;;;;;;4986526;28;20026;-63
2022/05/13 06:40:22;;;;;;;4.88;3.30;;;;;;;;;;4987085;28;20030;-63
2022/05/13 06:42:49;;;;;;;7.20;3.60;;;;;;;;;;4985068;28;20073;-64
2022/05/13 06:45:15;;;;;;;4.15;3.55;;;;;;;;;;4990783;28;20169;-63
2022/05/13 06:47:41;;;;;;;8.88;3.63;;;;;;;;;;4987159;28;20042;-63
2022/05/13 06:50:09;;;;;;;5.82;2.50;;;;;;;;;;4985635;28;20038;-64
2022/05/13 06:52:35;;;;;;;;;;;;;;;;;;4985151;28;20034;-63
2022/05/13 06:55:00;;;;;;;9.53;3.03;;;;;;;;;;4988746;28;20031;-64
2022/05/13 06:57:27;;;;;;;5.15;2.72;;;;;;;;;;4990680;28;20508;-63
2022/05/13 06:59:52;;;;;;;5.88;2.60;;;;;;;;;;4982599;28;20046;-65
2022/05/13 07:02:19;;;;;;;6.97;3.33;;;;;;;;;;4976765;28;20082;-63
2022/05/13 07:04:46;;;;;;;4.37;2.90;;;;;;;;;;4988826;28;20038;-63
2022/05/13 07:07:13;;;;;;;5.32;3.13;;;;;;;;;;4988721;28;20783;-63
2022/05/13 07:09:39;;;;;;;10.60;3.78;;;;;;;;;;4988055;28;20042;-64
2022/05/13 07:12:05;;;;;;;7.22;4.32;;;;;;;;;;4984047;28;20037;-63
2022/05/13 07:14:31;;;;;;;8.20;4.03;;;;;;;;;;4980452;28;20109;-64
2022/05/13 07:16:57;;;;;;;29.15;5.53;;;;;;;;;;4986636;28;20488;-63
2022/05/13 07:19:23;;;;;;;10.80;4.28;;;;;;;;;;4985477;28;20054;-64
2022/05/13 07:21:50;;;;;;;7.03;5.13;;;;;;;;;;4991275;28;20035;-64
2022/05/13 07:24:16;;;;;;;;;;;;;;;;;;4986347;28;20041;-64
2022/05/13 07:26:42;;;;;;;8.43;5.00;;;;;;;;;;4990289;28;19921;-63
2022/05/13 07:29:08;;;;;;;11.20;6.20;;;;;;;;;;4985175;28;20273;-63
2022/05/13 07:31:34;;;;;;;13.02;5.82;;;19.80;99.90;;;;;;4981611;28;20038;-62
2022/05/13 07:34:01;;;;;;;11.70;6.25;;;20.10;99.90;;;;;;4987501;28;20470;-64
2022/05/13 07:36:27;;;;;;;12.65;6.45;;;;;;;;;;4993431;28;20030;-64
2022/05/13 07:41:39;;;;;;;11.68;5.80;;;;;;;;;;4981966;28;20046;-64
2022/05/13 07:44:06;;;;;;;16.92;5.55;;;;;;;;;;4985937;28;20043;-62
2022/05/13 07:46:32;;;;;;;;;;;19.10;97.00;;;;;;4997699;28;20066;-63
2022/05/13 07:48:58;;;;;;;14.05;6.20;;;;;;;;;;4976301;28;19987;-64
2022/05/13 07:51:26;;;;;;;10.57;4.75;;;;;;;;;;4991163;28;20034;-63
2022/05/13 07:53:52;;;;;;;9.85;5.25;;;;;;;;;;4975553;28;20166;-63
2022/05/13 07:56:18;;;;;;;10.85;6.15;;;;;;;;;;4988134;28;20058;-64
2022/05/13 07:58:44;;;;;;;11.25;5.38;;;;;;;;;;4987342;28;20467;-63
2022/05/13 08:01:10;;;;;;;10.30;6.75;;;;;;;;;;4980252;28;20129;-65
2022/05/13 08:03:36;;;;;;;9.88;5.90;;;;;;;;;;4987077;28;20026;-63
2022/05/13 08:06:06;;;;;;;10.65;5.22;;;19.20;99.90;;;;;;4989263;28;20038;-63
2022/05/13 08:08:37;;;;;;;8.30;4.95;;;19.30;96.60;;;;;;4981419;28;20114;-63
2022/05/13 08:11:04;;;;;;;11.70;6.47;;;;;;;;;;4973718;28;20114;-64
2022/05/13 08:13:31;;;;;;;9.30;6.22;;;;;;;;;;4980253;28;20101;-63
2022/05/13 08:16:07;;;;;;;8.05;4.82;;;;;;;;;;4990397;28;20034;-63
2022/05/13 08:18:33;;;;;;;13.05;7.57;;;;;;;;;;4976141;28;20041;-63
2022/05/13 08:20:59;;;;;;;9.30;4.70;;;;;;;;;;4979613;28;20630;-64
2022/05/13 08:23:26;;;;;;;10.25;5.70;;;;;;;;;;4979571;28;20029;-63
2022/05/13 08:25:52;;;;;;;17.10;7.32;;;19.20;99.90;;;;;;4985381;28;20064;-62
2022/05/13 08:28:20;;;;;;;10.55;4.95;;;;;;;;;;4985436;28;20046;-63
2022/05/13 08:30:46;;;;;;;9.32;5.10;;;;;;;;;;4985642;28;20395;-62
2022/05/13 08:33:12;;;;;;;14.98;5.80;;;;;;;;;;4983494;28;20034;-64
2022/05/13 08:35:40;;;;;;;10.27;5.43;;;19.30;97.20;;;;;;4985194;28;20027;-64
2022/05/13 08:38:07;;;;;;;12.80;5.88;;;;;;;;;;4982337;28;20045;-64
2022/05/13 08:40:43;;;;;;;15.65;8.05;;;;;;;;;;4979854;28;20046;-62
2022/05/13 08:43:11;;;;;;;11.27;6.32;;;;;;;;;;4979357;28;20050;-63
2022/05/13 08:45:40;;;;;;;19.13;9.02;;;;;;;;;;4987427;28;20030;-63
2022/05/13 08:48:07;;;;;;;11.43;6.75;;;;;;;;;;4984855;28;20389;-64
2022/05/13 08:50:33;;;;;;;;;;;;;;;;;;4982475;28;20034;-63
2022/05/13 08:53:08;;;;;;;11.32;6.15;;;;;;;;;;4980029;28;19976;-63
2022/05/13 08:55:43;;;;;;;14.15;6.70;;;;;;;;;;4987367;28;20116;-63
2022/05/13 08:58:12;;;;;;;12.02;7.05;;;;;;;;;;4985630;28;20062;-64
2022/05/13 09:00:58;;;;;;;13.07;7.38;;;;;;;;;;4988774;28;20034;-64
2022/05/13 09:03:30;;;;;;;10.80;7.07;;;19.20;98.00;;;;;;4982548;28;20042;-64
2022/05/13 09:06:00;;;;;;;13.25;6.75;;;;;;;;;;4987181;28;20505;-63
2022/05/13 09:08:26;;;;;;;15.30;6.75;;;;;;;;;;4981296;28;20043;-64
2022/05/13 09:11:04;;;;;;;9.20;6.47;;;;;;;;;;4976773;28;20022;-62
2022/05/13 09:13:39;;;;;;;11.55;6.00;;;;;;;;;;4981004;28;20035;-63
2022/05/13 09:16:08;;;;;;;10.60;6.53;;;;;;;;;;4990191;28;20510;-63
2022/05/13 09:18:37;;;;;;;13.13;6.18;;;19.20;98.30;;;;;;4988887;28;20042;-63
2022/05/13 09:21:17;;;;;;;10.38;5.47;;;;;;;;;;4987056;28;20018;-65
2022/05/13 09:23:44;;;;;;;9.88;7.57;;;;;;;;;;4978938;28;20030;-65
2022/05/13 09:26:13;;;;;;;13.30;6.45;;;;;;;;;;4989079;28;20022;-63
2022/05/13 09:28:58;;;;;;;9.65;5.60;;;;;;;;;;4983435;28;20451;-64
2022/05/13 09:31:27;;;;;;;11.35;6.32;;;;;;;;;;4981809;28;20125;-63
2022/05/13 09:33:53;;;;;;;8.35;5.32;;;;;;;;;;4982946;28;20377;-64
2022/05/13 09:36:22;;;;;;;10.95;5.68;;;;;;;;;;4993228;28;20088;-64
2022/05/13 09:38:49;;;;;;;12.82;6.75;;;;;;;;;;4983728;28;20100;-63
2022/05/13 09:41:15;;;;;;;;;;;;;;;;;;4983700;28;20495;-64
2022/05/13 09:43:43;;;;;;;13.52;6.50;;;;;;;;;;4981287;28;19922;-64
2022/05/13 09:46:29;;;;;;;12.82;6.63;;;;;;;;;;4987562;28;20663;-63
2022/05/13 09:48:56;;;;;;;12.15;5.68;;;;;;;;;;4982970;28;20027;-63
2022/05/13 09:51:36;;;;;;;9.93;5.28;;;;;;;;;;4986673;28;20034;-64
2022/05/13 09:54:07;;;;;;;15.52;5.53;;;;;;;;;;4984201;28;20049;-63
2022/05/13 09:56:56;;;;;;;8.88;6.03;;;;;;;;;;4985680;28;20049;-62
2022/05/13 09:59:24;;;;;;;9.70;5.63;;;;;;;;;;4981201;28;20113;-62
2022/05/13 10:01:51;;;;;;;18.05;7.40;;;;;;;;;;4980923;28;20030;-63
2022/05/13 10:04:20;;;;;;;12.30;6.80;;;;;;;;;;4982304;28;20030;-63
2022/05/13 10:06:47;;;;;;;10.15;6.63;;;;;;;;;;4980491;28;20039;-63
2022/05/13 10:15:07;;;;;;;10.00;5.57;;;;;;;;;;4988018;28;20412;-64
2022/05/13 10:17:34;;;;;;;11.98;5.68;;;;;;;;;;4988075;28;20057;-65
2022/05/13 10:20:07;;;;;;;15.50;7.43;;;;;;;;;;4985787;28;20522;-64
2022/05/13 10:22:49;;;;;;;11.27;6.18;;;;;;;;;;4979893;28;20667;-65
2022/05/13 10:25:18;;;;;;;9.38;5.00;;;;;;;;;;4988253;28;20038;-65
2022/05/13 10:27:47;;;;;;;12.63;6.65;;;;;;;;;;4992235;28;20105;-65
2022/05/13 10:30:18;;;;;;;11.00;6.72;;;;;;;;;;4979771;28;20019;-65
2022/05/13 10:32:52;;;;;;;10.27;6.13;;;;;;;;;;4984900;28;20462;-64
2022/05/13 10:35:19;;;;;;;16.13;6.72;;;;;;;;;;4987216;28;20034;-64
2022/05/13 10:37:55;;;;;;;14.18;6.90;;;;;;;;;;4987726;28;20041;-64
2022/05/13 10:40:21;;;;;;;10.10;6.28;;;;;;;;;;4983226;28;20068;-66
2022/05/13 10:43:09;;;;;;;14.07;7.03;;;20.70;96.40;;;;;;4986769;28;20050;-65
2022/05/13 10:45:37;;;;;;;11.10;5.72;;;;;;;;;;4990868;28;20042;-65
2022/05/13 10:48:03;;;;;;;9.82;5.97;;;;;;;;;;4986999;28;20395;-64
2022/05/13 10:50:35;;;;;;;8.85;6.00;;;;;;;;;;4984718;28;20364;-65
2022/05/13 10:53:01;;;;;;;13.70;6.53;;;;;;;;;;4983905;28;20073;-64
2022/05/13 10:55:36;;;;;;;11.18;6.03;;;;;;;;;;4987222;28;20459;-65
2022/05/13 10:58:10;;;;;;;12.60;6.57;;;;;;;;;;4989643;28;20605;-64
2022/05/13 11:00:50;;;;;;;14.73;6.72;;;;;;;;;;4987628;28;20035;-65
2022/05/13 11:03:28;;;;;;;10.43;6.25;;;;;;;;;;4986271;28;20061;-65
2022/05/13 11:06:14;;;;;;;9.38;5.18;;;22.70;99.90;;;;;;4987916;28;20034;-64
2022/05/13 11:08:52;;;;;;;10.18;5.55;;;;;;;;;;4981722;28;20130;-65
2022/05/13 11:11:24;;;;;;;12.02;6.18;;;;;;;;;;4980529;28;20552;-66
2022/05/13 11:13:59;;;;;;;13.05;6.93;;;;;;;;;;4983977;28;20069;-65
2022/05/13 11:16:38;;;;;;;7.68;5.55;;;;;;;;;;4986758;28;20026;-63
2022/05/13 11:19:23;;;;;;;8.60;5.68;;;;;;;;;;4984095;28;20038;-74
2022/05/13 11:22:02;;;;;;;7.40;5.72;;;;;;;;;;4982839;28;20030;-73
2022/05/13 11:27:33;;;;;;;9.80;5.40;;;;;;;;;;4987840;28;20046;-73
2022/05/13 11:29:59;;;;;;;10.68;5.10;;;;;;;;;;4982925;28;20034;-74
2022/05/13 11:32:57;;;;;;;8.75;4.63;;;23.80;88.70;;;;;;4984856;28;20181;-74
2022/05/13 11:35:38;;;;;;;9.55;5.00;;;;;;;;;;4983787;28;20782;-74
2022/05/13 11:38:08;;;;;;;11.82;4.70;;;;;;;;;;4985234;28;20022;-74
2022/05/13 11:40:46;;;;;;;8.77;4.45;;;23.80;94.00;;;;;;4976620;28;20077;-74
2022/05/13 11:43:30;;;;;;;7.45;4.68;;;;;;;;;;4983674;28;20050;-74
2022/05/13 11:46:02;;;;;;;7.22;4.45;;;;;;;;;;4981151;28;20042;-73
2022/05/13 11:48:30;;;;;;;8.63;4.20;;;;;;;;;;4989099;28;20037;-73
2022/05/13 11:51:15;;;;;;;7.00;3.40;;;;;;;;;;4981853;28;20030;-74
2022/05/13 11:53:44;;;;;;;10.55;3.53;;;;;;;;;;4975430;28;20031;-74
2022/05/13 11:56:16;;;;;;;5.38;3.17;;;;;;;;;;4976785;28;20038;-74
2022/05/13 11:58:48;;;;;;;7.45;4.13;;;23.70;95.90;;;;;;4985220;28;20080;-74
2022/05/13 12:01:33;;;;;;;5.03;3.08;;;23.80;85.50;;;;;;4982741;28;20034;-74
2022/05/13 12:04:11;;;;;;;6.40;3.47;;;23.80;86.70;;;;;;4983964;28;20059;-74
2022/05/13 12:06:50;;;;;;;11.27;5.13;;;;;;;;;;4988899;28;20476;-74
2022/05/13 12:09:30;;;;;;;10.45;4.80;;;;;;;;;;4983848;28;20519;-74
2022/05/13 12:12:18;;;;;;;7.95;4.15;;;;;;;;;;4979827;28;20034;-74
2022/05/13 12:14:52;;;;;;;9.75;4.55;;;;;;;;;;4983481;28;20035;-74
2022/05/13 12:17:20;;;;;;;6.45;4.18;;;;;;;;;;4984278;28;20093;-74
2022/05/13 12:19:52;;;;;;;13.05;3.72;;;;;;;;;;4985073;28;20050;-74
2022/05/13 12:22:31;;;;;;;8.05;4.28;;;;;;;;;;4986665;28;20038;-74
2022/05/13 12:25:07;;;;;;;10.43;4.10;;;;;;;;;;4986773;28;20061;-74
2022/05/13 12:27:52;;;;;;;6.00;4.15;;;;;;;;;;4985448;28;20037;-74
2022/05/13 12:30:29;;;;;;;9.10;4.15;;;;;;;;;;4977400;28;20027;-73
2022/05/13 12:32:55;;;;;;;12.13;4.07;;;;;;;;;;4978184;28;20130;-74
2022/05/13 12:38:26;;;;;;;11.00;4.93;;;;;;;;;;4980648;28;20309;-73
2022/05/13 12:41:09;;;;;;;7.93;4.00;;;23.40;88.20;;;;;;4989195;28;20054;-73
2022/05/13 12:44:08;;;;;;;9.18;4.15;;;23.50;87.00;;;;;;4989029;28;20050;-74
2022/05/13 12:46:48;;;;;;;7.50;2.90;;;23.60;87.40;;;;;;4975829;28;20118;-74
2022/05/13 12:49:33;;;;;;;6.53;4.20;;;;;;;;;;4988828;28;20027;-74
2022/05/13 12:52:04;;;;;;;10.48;4.25;;;;;;;;;;4986776;28;20033;-74
2022/05/13 12:54:37;;;;;;;7.80;3.88;;;24.00;84.70;;;;;;4984934;28;20029;-74
2022/05/13 12:57:18;;;;;;;7.72;4.53;;;24.00;84.20;;;;;;4982679;28;20573;-74
2022/05/13 12:59:48;;;;;;;18.40;4.40;;;;;;;;;;4986522;28;20042;-74
2022/05/13 13:02:14;;;;;;;5.13;3.58;;;;;;;;;;4988953;28;20073;-73
2022/05/13 13:04:56;;;;;;;7.35;4.22;;;;;;;;;;4989412;28;20795;-74
2022/05/13 13:07:26;;;;;;;7.07;3.40;;;23.90;84.00;;;;;;4973791;28;20065;-74
2022/05/13 13:09:52;;;;;;;7.35;3.75;;;;;;;;;;4989446;28;20057;-74
2022/05/13 13:12:18;;;;;;;4.80;3.38;;;;;;;;;;4984035;28;20041;-74
2022/05/13 13:14:52;;;;;;;4.28;3.40;;;;;;;;;;4985034;28;20051;-74
2022/05/13 13:17:37;;;;;;;5.85;3.53;;;;;;;;;;4984013;28;20400;-74
2022/05/13 13:20:05;;;;;;;6.43;3.75;;;;;;;;;;4985606;28;20092;-74
2022/05/13 13:22:43;;;;;;;7.53;3.63;;;24.50;81.50;;;;;;4988540;28;20114;-74
2022/05/13 13:25:18;;;;;;;6.78;3.28;;;;;;;;;;4987446;28;20158;-74
2022/05/13 13:27:44;;;;;;;5.97;3.75;;;;;;;;;;4975619;28;20031;-74
2022/05/13 13:30:19;;;;;;;6.63;3.60;;;24.50;81.90;;;;;;4982035;28;20026;-74
2022/05/13 13:32:46;;;;;;;7.45;3.72;;;;;;;;;;4981382;28;20121;-74
2022/05/13 13:35:12;;;;;;;5.85;3.80;;;;;;;;;;4983754;28;20030;-73
2022/05/13 13:37:39;;;;;;;6.05;4.72;;;24.50;95.10;;;;;;4988299;28;20105;-74
2022/05/13 13:40:13;;;;;;;6.25;3.38;;;;;;;;;;4987082;28;20038;-74
2022/05/13 13:42:39;;;;;;;6.28;3.75;;;;;;;;;;4985282;28;20042;-75
2022/05/13 13:45:14;;;;;;;6.20;4.15;;;24.40;83.30;;;;;;4987823;28;20033;-73
2022/05/13 13:47:45;;;;;;;7.22;4.05;;;24.60;82.90;;;;;;4977803;28;20544;-74
2022/05/13 13:50:13;;;;;;;12.60;3.58;;;;;;;;;;4978934;28;20023;-73
2022/05/13 13:52:41;;;;;;;16.80;5.35;;;;;;;;;;4987970;28;20042;-74
2022/05/13 13:55:09;;;;;;;8.15;3.88;;;;;;;;;;4983086;28;20073;-74
2022/05/13 13:57:53;;;;;;;5.70;4.30;;;24.40;81.50;;;;;;4988005;28;20045;-74
2022/05/13 14:00:24;;;;;;;10.52;4.60;;;;;;;;;;4988349;28;20034;-74
2022/05/13 14:02:51;;;;;;;6.68;4.25;;;;;;;;;;4980256;28;20539;-74
2022/05/13 14:05:19;;;;;;;6.93;4.38;;;;;;;;;;4980220;28;20050;-74
2022/05/13 14:07:47;;;;;;;6.97;5.47;;;;;;;;;;4987823;28;20030;-74
2022/05/13 14:10:12;;;;;;;;;;;;;;;;;;4988152;28;20050;-73
2022/05/13 14:12:39;;;;;;;6.13;4.67;;;;;;;;;;4987864;28;19910;-73
2022/05/13 14:15:11;;;;;;;4.15;3.50;;;;;;;;;;4983663;28;20061;-74
2022/05/13 14:17:37;;;;;;;6.22;4.40;;;24.50;95.60;;;;;;4982156;28;20035;-74
2022/05/13 14:20:03;;;;;;;8.82;3.78;;;;;;;;;;4977630;28;20575;-73
2022/05/13 14:22:29;;;;;;;5.45;3.42;;;;;;;;;;4986244;28;20037;-74
2022/05/13 14:25:04;;;;;;;7.07;3.70;;;;;;;;;;4985080;28;20038;-74
2022/05/13 14:27:31;;;;;;;4.47;3.15;;;;;;;;;;4983624;28;20074;-74
2022/05/13 14:30:15;;;;;;;7.53;4.22;;;24.20;81.70;;;;;;4980554;28;20037;-74
2022/05/13 14:32:43;;;;;;;6.65;3.72;;;;;;;;;;4984444;28;20415;-74
2022/05/13 14:35:27;;;;;;;6.57;3.58;;;24.00;84.40;;;;;;4987326;28;20041;-74
2022/05/13 14:38:01;;;;;;;6.47;3.35;;;;;;;;;;4987832;28;20551;-75
2022/05/13 14:40:33;;;;;;;7.38;3.25;;;;;;;;;;4973291;28;20105;-74
2022/05/13 14:43:13;;;;;;;4.82;3.42;;;;;;;;;;4987950;28;20052;-74
2022/05/13 14:45:41;;;;;;;9.57;3.35;;;;;;;;;;4972615;28;20463;-74
2022/05/13 14:48:30;;;;;;;5.35;3.25;;;;;;;;;;4983789;28;20025;-74
2022/05/13 14:51:04;;;;;;;4.80;3.25;;;;;;;;;;4985211;28;20049;-74
2022/05/13 14:53:44;;;;;;;8.82;3.97;;;23.70;83.90;;;;;;4980512;28;20573;-74
2022/05/13 14:56:14;;;;;;;8.50;3.35;;;23.70;83.60;;;;;;4987316;28;20026;-74
2022/05/13 14:58:46;;;;;;;3.97;2.88;;;;;;;;;;4991073;28;20041;-73
2022/05/13 15:01:25;;;;;;;7.20;3.13;;;23.70;83.60;;;;;;4976078;28;20038;-74